Liverpool, Illinois
Current Conditions -  °F | °C
As of 1:54 PM on Wednesday 28 Jan 2015 (Local Time) from KPIA Reporting Station
Clear Clear  
Wind Chill: 31°   Ceiling: Unl
Heat Index: 40°   Visibility: 10mi
Dew Point: 30°   Wind: 17mph
Humidity: 68%   Direction: 160°SSE
Pressure: 30.03"   Gusts: 26mph
Location:  40.39°N, 90°W
Report Text: KPIA 281954Z 16015G23KT 10SM CLR 04/M01 A3003 RMK AO2 SLP176 T00441011
Loading
Personal Weather Stations






























Interactive Weather Map New forecast layout! Learn more

10-Day Weather Forecast

Advertisements
Track Severe Weather on mobile